Weather reports worldwide

Advertisment
Pian Rosa, Italy (16052): temperature & dewpoint: 05.12.2019 08:00:00 - 11.12.2019 08:00:00 (CET)Pian Rosa, Italy (16052): wind speed & gusts: 05.12.2019 08:00:00 - 11.12.2019 08:00:00 (CET)Pian Rosa, Italy (16052): wind direction: 05.12.2019 08:00:00 - 11.12.2019 08:00:00 (CET)Pian Rosa, Italy (16052): visibility: 05.12.2019 08:00:00 - 11.12.2019 08:00:00 (CET)Pian Rosa, Italy (16052): sunshine duration: 05.12.2019 08:00:00 - 11.12.2019 08:00:00 (CET)
Date & Time tt [°C] td [°C] ff [km/h] ff [kn] fx [km/h] fx [kn] dd vv [km] sd [min]
11.12.2019 08:00:00 -6,0 -25,9 4 2 - - W 50 0
11.12.2019 07:00:00 -5,8 -23,1 15 8 - - NE 10 0
11.12.2019 06:00:00 -6,4 -22,8 26 14 - - NE 10 0
11.12.2019 05:00:00 -6,2 -21,8 18 10 - - ENE 10 0
11.12.2019 04:00:00 -6,0 -21,6 16 9 - - ENE 10 0
11.12.2019 03:00:00 -6,8 -22,3 16 9 - - ENE 10 0
11.12.2019 02:00:00 -6,8 -24,5 28 15 - - NE 10 0
11.12.2019 01:00:00 -7,2 -30,0 28 15 - - NE 10 0
11.12.2019 00:00:00 -7,4 -30,0 22 12 - - NE 10 0
10.12.2019 23:00:00 -7,4 -30,0 24 13 - - NE 10 0
10.12.2019 22:00:00 -7,8 -30,0 18 10 - - NE 15 0
10.12.2019 21:00:00 -7,6 -30,0 15 8 - - NE 15 0
10.12.2019 20:00:00 -7,8 -30,0 15 8 - - NE 15 0
10.12.2019 19:00:00 -7,8 -30,0 15 8 - - ENE 15 0
10.12.2019 18:00:00 -8,4 -28,5 21 11 - - NE 20 0
10.12.2019 17:00:00 -10,2 -27,9 28 15 - - NE 50 0
10.12.2019 16:00:00 -11,0 -25,2 41 22 - - NE 70 0
10.12.2019 15:00:00 -12,0 -20,3 42 23 - - NE 70 0
10.12.2019 14:00:00 -13,4 -17,7 54 29 - - NE 70 0
10.12.2019 13:00:00 -14,4 -16,4 54 29 - - NE 50 0
10.12.2019 12:00:00 -16,0 -17,1 74 40 - - NE 50 0
10.12.2019 11:00:00 -18,4 -19,5 72 39 - - NE 40 0
10.12.2019 10:00:00 -19,0 -20,1 78 42 - - NE 30 0
10.12.2019 09:00:00 -18,8 -19,9 74 40 95 51 NE 30 0
10.12.2019 08:00:00 -18,0 -19,1 78 42 - - NE 0,5 0
10.12.2019 07:00:00 -17,6 -18,7 89 48 - - NE 0,1 0
10.12.2019 06:00:00 -17,4 -18,5 83 45 - - NE 0,1 0
10.12.2019 05:00:00 -16,8 -17,9 70 38 - - NNE 0,1 0
10.12.2019 04:00:00 -16,4 -17,5 63 34 - - NE 0,1 0
10.12.2019 03:00:00 -16,2 -17,3 65 35 88 47 NE 0,1 0
10.12.2019 02:00:00 -16,0 -17,1 78 42 101 55 NE 0,1 0
10.12.2019 01:00:00 -16,0 -17,1 74 40 - - NNE 0,1 0
10.12.2019 00:00:00 -16,0 -17,1 74 40 98 53 NE 0,1 0
09.12.2019 23:00:00 -15,8 -16,9 81 44 105 57 NNE 0,1 0
09.12.2019 22:00:00 -15,6 -16,7 76 41 - - NNE 0,1 0
09.12.2019 21:00:00 -15,0 -16,1 63 34 96 52 NNE 0,1 0
09.12.2019 20:00:00 -15,0 -16,1 74 40 95 51 N 0,1 0
09.12.2019 19:00:00 -15,0 -16,1 21 11 - - NNW 0,1 0
09.12.2019 18:00:00 -14,8 -15,9 59 32 76 41 N 0,1 0
09.12.2019 17:00:00 -14,2 -15,2 29 16 67 36 N 0,1 0
09.12.2019 16:00:00 -14,2 -15,2 21 11 - - N 0,1 0
09.12.2019 15:00:00 -13,6 -14,6 18 10 37 20 NE 0,1 0
09.12.2019 14:00:00 - - - - - - - - -
09.12.2019 13:00:00 -14,2 -15,2 15 8 - - NNE 0,1 0
09.12.2019 12:00:00 -14,2 -15,1 18 10 37 20 NW 0,3 0
09.12.2019 11:00:00 -13,8 -14,5 16 9 43 23 NW 0,5 0
09.12.2019 10:00:00 -13,2 -13,8 31 17 - - WNW 0,8 0
09.12.2019 09:00:00 -13,4 -14,0 31 17 61 33 WNW 0,1 0
09.12.2019 08:00:00 -13,0 -13,8 13 7 42 23 NW 0,1 0
09.12.2019 07:00:00 -12,4 -13,2 11 6 - - NNW 0,1 0
09.12.2019 06:00:00 -11,8 -12,6 11 6 - - WNW 0,1 0
09.12.2019 05:00:00 -10,6 -11,4 5 3 - - WNW 0,1 0
09.12.2019 04:00:00 -10,6 -11,4 18 10 - - SW 0,3 0
09.12.2019 03:00:00 -9,0 -11,5 18 10 40 21 SW 10 0
09.12.2019 02:00:00 -8,4 -9,2 16 9 35 19 SW 10 0
09.12.2019 01:00:00 -9,0 -9,9 21 11 - - SW 10 0
09.12.2019 00:00:00 -7,2 -8,0 22 12 44 24 W 10 0
08.12.2019 23:00:00 -7,0 -7,8 15 8 37 20 WNW 4,0 0
08.12.2019 22:00:00 -6,0 -9,4 9 5 - - W 10 0
08.12.2019 21:00:00 -5,4 -10,5 18 10 - - SW 10 0
08.12.2019 20:00:00 -5,4 -12,2 18 10 - - SW 10 0
08.12.2019 19:00:00 -4,6 -12,5 9 5 - - WSW 10 0
08.12.2019 18:00:00 -4,8 -11,8 11 6 - - SSW 15 0
08.12.2019 17:00:00 -4,8 -12,7 15 8 - - SW 50 0
08.12.2019 16:00:00 -2,8 -15,8 13 7 - - S 60 0
08.12.2019 15:00:00 -1,8 -18,3 5 3 - - W 70 0
08.12.2019 14:00:00 -1,6 -20,0 4 2 - - S 70 0
08.12.2019 13:00:00 -1,6 -24,2 5 3 - - NW 70 0
08.12.2019 12:00:00 -1,0 -28,8 5 3 - - SE 70 0
08.12.2019 11:00:00 -1,6 -29,3 9 5 - - WNW 70 0
08.12.2019 10:00:00 -2,0 -29,6 8 4 - - WNW 70 0
08.12.2019 09:00:00 -3,0 -30,0 13 7 - - NNE 70 0
08.12.2019 08:00:00 -3,0 -30,0 9 5 - - E 50 0
08.12.2019 07:00:00 -2,0 -29,6 13 7 - - NE 10 0
08.12.2019 06:00:00 -2,8 -30,0 16 9 - - NE 10 0
08.12.2019 05:00:00 -2,2 -29,8 11 6 - - N 10 0
08.12.2019 04:00:00 -3,6 -30,0 4 2 - - N 10 0
08.12.2019 03:00:00 -4,4 -30,0 15 8 - - ENE 10 0
08.12.2019 02:00:00 -4,8 -30,0 21 11 - - ENE 10 0
08.12.2019 01:00:00 -4,8 -30,0 16 9 - - NE 10 0
08.12.2019 00:00:00 -6,0 -30,0 21 11 - - NE 10 0
07.12.2019 23:00:00 -6,0 -30,0 28 15 - - NE 10 0
07.12.2019 22:00:00 -6,0 -30,0 28 15 - - NE 10 0
07.12.2019 21:00:00 -6,0 -30,0 31 17 - - NE 10 0
07.12.2019 20:00:00 -6,8 -29,1 34 18 - - NE 10 0
07.12.2019 19:00:00 -7,0 -27,4 42 23 - - ENE 10 0
07.12.2019 18:00:00 -8,0 -23,3 41 22 - - NE 10 0
07.12.2019 17:00:00 -8,6 -22,0 44 24 - - NE 70 0
07.12.2019 16:00:00 -8,0 -21,5 50 27 - - NNE 70 0
07.12.2019 15:00:00 -8,6 -22,3 52 28 - - NNE 70 0
07.12.2019 14:00:00 -8,0 -24,1 52 28 68 37 NNE 70 0
07.12.2019 13:00:00 -7,4 -24,1 29 16 - - N 70 0
07.12.2019 12:00:00 -6,8 -21,5 39 21 59 32 N 70 0
07.12.2019 11:00:00 -8,0 -17,1 29 16 58 31 NNE 70 0
07.12.2019 10:00:00 -8,0 -15,5 26 14 - - NNE 70 0
07.12.2019 09:00:00 -7,8 -16,9 35 19 64 34 N 50 0
07.12.2019 08:00:00 -6,6 -15,8 39 21 87 47 NW 30 0
07.12.2019 07:00:00 -7,0 -12,9 29 16 - - NNW 10 0
07.12.2019 06:00:00 -7,4 -10,6 26 14 98 53 WNW 10 0
07.12.2019 05:00:00 -8,0 -8,8 15 8 63 34 NW 0,8 0
07.12.2019 04:00:00 -7,0 -8,2 24 13 - - N 0,8 0
07.12.2019 03:00:00 -7,2 -8,0 22 12 43 23 W 0,8 0
07.12.2019 02:00:00 -7,6 -8,4 28 15 54 29 W 0,8 0
07.12.2019 01:00:00 -8,4 -9,1 4 2 - - N 10 0
07.12.2019 00:00:00 -8,2 -11,5 15 8 - - NNE 10 0
06.12.2019 23:00:00 -7,2 -11,9 18 10 - - WNW 10 0
06.12.2019 22:00:00 -6,8 -11,7 18 10 - - W 10 0
06.12.2019 21:00:00 -6,8 -14,3 8 4 - - NNE 10 0
06.12.2019 20:00:00 -7,0 -16,9 4 2 - - N 10 0
06.12.2019 19:00:00 -7,0 -20,2 18 10 - - NE 10 0
06.12.2019 18:00:00 -7,4 -22,0 21 11 - - NE 20 0
06.12.2019 17:00:00 -7,6 -22,6 22 12 - - NE 50 0
06.12.2019 16:00:00 -7,0 -22,8 18 10 - - NE 60 0
06.12.2019 15:00:00 -6,4 -22,3 18 10 - - NE 70 0
06.12.2019 14:00:00 -5,8 -22,2 16 9 - - NE 70 0
06.12.2019 13:00:00 -5,0 -22,5 9 5 - - ENE 70 0
06.12.2019 12:00:00 -4,2 -21,3 4 2 - - N 70 0
06.12.2019 11:00:00 -4,6 -21,2 4 2 - - SSW 70 0
06.12.2019 10:00:00 -5,6 -21,6 9 5 - - E 70 0
06.12.2019 09:00:00 -6,2 -22,2 4 2 - - N 70 0
06.12.2019 08:00:00 -6,2 -22,2 9 5 - - E 60 0
06.12.2019 07:00:00 -6,6 -23,0 15 8 - - E 10 0
06.12.2019 06:00:00 -6,4 -23,7 11 6 - - ENE 10 0
06.12.2019 05:00:00 -6,0 -23,8 15 8 - - ENE 10 0
06.12.2019 04:00:00 -5,6 -24,0 4 2 - - N 10 0
06.12.2019 03:00:00 -5,6 -23,5 5 3 - - SW 10 0
06.12.2019 02:00:00 -5,4 -23,3 8 4 - - SSW 10 0
06.12.2019 01:00:00 -5,4 -25,4 9 5 - - SSW 10 0
06.12.2019 00:00:00 -5,8 -24,6 9 5 - - S 10 0
05.12.2019 23:00:00 -5,4 -23,8 4 2 - - N 10 0
05.12.2019 22:00:00 -5,4 -22,3 5 3 - - ESE 10 0
05.12.2019 21:00:00 -5,6 -22,5 8 4 - - E 10 0
05.12.2019 20:00:00 -5,4 -21,9 5 3 - - SSW 10 0
05.12.2019 19:00:00 -5,4 -22,8 8 4 - - ESE 10 0
05.12.2019 18:00:00 -4,8 -21,8 16 9 - - NE 15 0
05.12.2019 17:00:00 -4,6 -21,7 15 8 - - NE 40 0
05.12.2019 16:00:00 -3,4 -20,2 4 2 - - - 50 60
05.12.2019 15:00:00 -3,2 -16,8 8 4 - - E 60 0
05.12.2019 14:00:00 -2,6 -19,9 4 2 - - N 60 0
05.12.2019 13:00:00 -2,0 -19,9 13 7 - - SE 60 60
05.12.2019 12:00:00 -2,4 -19,3 4 2 - - N 70 0
05.12.2019 11:00:00 -3,0 -19,4 8 4 - - S 70 0
05.12.2019 10:00:00 -4,0 -18,3 9 5 - - E 60 0
05.12.2019 09:00:00 -4,8 -17,3 4 2 - - N 60 0
05.12.2019 08:00:00 -3,0 -15,6 4 2 - - N 50 0

tt = temperature
td = dewpoint
ff = wind speed
fx = gusts
dd = wind direction
vv = visibility
sd = sunshine duration

Next stations